Íslenskir flugvellir

Veldu flugvelli í þeirri röð sem þeir eiga að birtast og styddu á hnappinn

Uppfært síðast 21.05.2019 - kl. 01:14

SIGMET síðustu 6 klst.

Engin SIGMET skeyti bárust síðustu 6 klst.

Akureyri

METAR síðustu 3 klst

TímiSkeyti
2019-05-21 01.00METAR BIAR 210100Z 30004KT 9999 BKN030 08/04 Q1019
2019-05-21 00.00METAR BIAR 210000Z 32003KT 9999 BKN034 07/04 Q1019
2019-05-20 23.00METAR BIAR 202300Z 29003KT 9999 -DZ OVC026 08/04 Q1019

TAF

TAFBIAR2019-05-21 01.01Z21030335007KT 9999 BKN025 TX14/2115Z TN04/2105Z PROB30 TEMPO 2103/2109 5000 BR BKN008 OVC010

Allur vindur er réttvísandi bæði í Metar og frá sjálfvirkum veðurstöðvum




Aðrir tengdir vefir



Þetta vefsvæði byggir á Eplica